sensor_id;sensor_type;location;lat;lon;timestamp;temperature;humidity
54409;DHT22;40315;48.620;9.828;2022-11-20T00:00:54;5.50;99.90
54409;DHT22;40315;48.620;9.828;2022-11-20T00:03:27;5.50;99.90
54409;DHT22;40315;48.620;9.828;2022-11-20T00:05:59;5.50;99.90
54409;DHT22;40315;48.620;9.828;2022-11-20T00:08:26;5.40;99.90
54409;DHT22;40315;48.620;9.828;2022-11-20T00:10:53;5.40;99.90
54409;DHT22;40315;48.620;9.828;2022-11-20T00:13:20;5.30;99.90
54409;DHT22;40315;48.620;9.828;2022-11-20T00:15:47;5.50;99.90
54409;DHT22;40315;48.620;9.828;2022-11-20T00:18:14;5.60;99.90
54409;DHT22;40315;48.620;9.828;2022-11-20T00:20:43;5.50;99.90
54409;DHT22;40315;48.620;9.828;2022-11-20T00:23:10;5.60;99.90
54409;DHT22;40315;48.620;9.828;2022-11-20T00:25:37;5.50;99.90
54409;DHT22;40315;48.620;9.828;2022-11-20T00:28:06;5.50;99.90
54409;DHT22;40315;48.620;9.828;2022-11-20T00:30:33;5.40;99.90
54409;DHT22;40315;48.620;9.828;2022-11-20T00:33:02;5.30;99.90
54409;DHT22;40315;48.620;9.828;2022-11-20T00:35:30;5.30;99.90
54409;DHT22;40315;48.620;9.828;2022-11-20T00:38:00;5.30;99.90
54409;DHT22;40315;48.620;9.828;2022-11-20T00:40:28;5.20;99.90
54409;DHT22;40315;48.620;9.828;2022-11-20T00:42:57;5.20;99.90
54409;DHT22;40315;48.620;9.828;2022-11-20T00:45:24;5.20;99.90
54409;DHT22;40315;48.620;9.828;2022-11-20T00:47:51;5.10;99.90
54409;DHT22;40315;48.620;9.828;2022-11-20T00:50:18;5.10;99.90
54409;DHT22;40315;48.620;9.828;2022-11-20T00:52:45;5.00;99.90
54409;DHT22;40315;48.620;9.828;2022-11-20T00:55:14;5.00;99.90
54409;DHT22;40315;48.620;9.828;2022-11-20T00:57:43;5.00;99.90
54409;DHT22;40315;48.620;9.828;2022-11-20T01:00:10;5.00;99.90
54409;DHT22;40315;48.620;9.828;2022-11-20T01:02:37;5.00;99.90
54409;DHT22;40315;48.620;9.828;2022-11-20T01:05:07;5.00;99.90
54409;DHT22;40315;48.620;9.828;2022-11-20T01:07:34;5.00;99.90
54409;DHT22;40315;48.620;9.828;2022-11-20T01:10:01;5.00;99.90
54409;DHT22;40315;48.620;9.828;2022-11-20T01:12:30;4.90;99.90
54409;DHT22;40315;48.620;9.828;2022-11-20T01:14:57;4.90;99.90
54409;DHT22;40315;48.620;9.828;2022-11-20T01:17:24;4.90;99.90
54409;DHT22;40315;48.620;9.828;2022-11-20T01:19:52;4.90;99.90
54409;DHT22;40315;48.620;9.828;2022-11-20T01:22:19;4.80;99.90
54409;DHT22;40315;48.620;9.828;2022-11-20T01:24:49;4.80;99.90
54409;DHT22;40315;48.620;9.828;2022-11-20T01:27:16;4.80;99.90
54409;DHT22;40315;48.620;9.828;2022-11-20T01:29:44;4.80;99.90
54409;DHT22;40315;48.620;9.828;2022-11-20T01:32:11;4.80;99.90
54409;DHT22;40315;48.620;9.828;2022-11-20T01:34:38;4.80;99.90
54409;DHT22;40315;48.620;9.828;2022-11-20T01:37:05;4.80;99.90
54409;DHT22;40315;48.620;9.828;2022-11-20T01:39:32;4.70;99.90
54409;DHT22;40315;48.620;9.828;2022-11-20T01:48:49;4.70;99.90
54409;DHT22;40315;48.620;9.828;2022-11-20T01:51:25;4.70;99.90
54409;DHT22;40315;48.620;9.828;2022-11-20T01:53:54;4.60;99.90
54409;DHT22;40315;48.620;9.828;2022-11-20T01:56:23;4.60;99.90
54409;DHT22;40315;48.620;9.828;2022-11-20T01:58:54;4.60;99.90
54409;DHT22;40315;48.620;9.828;2022-11-20T02:04:00;4.50;99.90
54409;DHT22;40315;48.620;9.828;2022-11-20T02:06:30;4.50;99.90
54409;DHT22;40315;48.620;9.828;2022-11-20T02:08:58;4.50;99.90
54409;DHT22;40315;48.620;9.828;2022-11-20T02:11:25;4.50;99.90
54409;DHT22;40315;48.620;9.828;2022-11-20T02:13:53;5.00;99.90
54409;DHT22;40315;48.620;9.828;2022-11-20T02:16:22;4.40;99.90
54409;DHT22;40315;48.620;9.828;2022-11-20T02:18:50;4.40;99.90
54409;DHT22;40315;48.620;9.828;2022-11-20T02:21:28;4.40;99.90
54409;DHT22;40315;48.620;9.828;2022-11-20T02:24:09;4.30;99.90
54409;DHT22;40315;48.620;9.828;2022-11-20T02:26:44;4.30;99.90
54409;DHT22;40315;48.620;9.828;2022-11-20T02:29:18;4.50;99.90
54409;DHT22;40315;48.620;9.828;2022-11-20T02:31:46;4.30;99.90
54409;DHT22;40315;48.620;9.828;2022-11-20T02:36:43;4.10;99.90
54409;DHT22;40315;48.620;9.828;2022-11-20T02:39:13;4.10;99.90
54409;DHT22;40315;48.620;9.828;2022-11-20T02:41:45;4.10;99.90
54409;DHT22;40315;48.620;9.828;2022-11-20T02:44:12;4.60;99.90
54409;DHT22;40315;48.620;9.828;2022-11-20T02:46:41;6.60;99.90
54409;DHT22;40315;48.620;9.828;2022-11-20T02:49:08;3.90;99.90
54409;DHT22;40315;48.620;9.828;2022-11-20T02:51:35;5.60;99.90
54409;DHT22;40315;48.620;9.828;2022-11-20T02:54:02;3.90;99.90
54409;DHT22;40315;48.620;9.828;2022-11-20T02:56:33;3.90;99.90
54409;DHT22;40315;48.620;9.828;2022-11-20T02:59:00;3.90;99.90
54409;DHT22;40315;48.620;9.828;2022-11-20T03:01:27;4.10;99.90
54409;DHT22;40315;48.620;9.828;2022-11-20T03:03:54;4.20;99.90
54409;DHT22;40315;48.620;9.828;2022-11-20T03:06:21;3.90;99.90
54409;DHT22;40315;48.620;9.828;2022-11-20T03:08:48;3.90;99.90
54409;DHT22;40315;48.620;9.828;2022-11-20T03:11:15;5.20;99.90
54409;DHT22;40315;48.620;9.828;2022-11-20T03:16:13;3.70;99.90
54409;DHT22;40315;48.620;9.828;2022-11-20T03:18:41;4.70;99.90
54409;DHT22;40315;48.620;9.828;2022-11-20T03:21:09;4.10;99.90
54409;DHT22;40315;48.620;9.828;2022-11-20T03:23:37;3.70;99.90
54409;DHT22;40315;48.620;9.828;2022-11-20T03:26:12;3.60;99.90
54409;DHT22;40315;48.620;9.828;2022-11-20T03:28:45;3.60;99.90
54409;DHT22;40315;48.620;9.828;2022-11-20T03:31:14;3.70;99.90
54409;DHT22;40315;48.620;9.828;2022-11-20T03:33:42;3.70;99.90
54409;DHT22;40315;48.620;9.828;2022-11-20T03:36:11;3.70;99.90
54409;DHT22;40315;48.620;9.828;2022-11-20T03:38:39;3.70;99.90
54409;DHT22;40315;48.620;9.828;2022-11-20T03:41:10;3.80;99.90
54409;DHT22;40315;48.620;9.828;2022-11-20T03:43:38;5.00;99.90
54409;DHT22;40315;48.620;9.828;2022-11-20T03:46:07;3.80;99.90
54409;DHT22;40315;48.620;9.828;2022-11-20T03:48:36;3.70;99.90
54409;DHT22;40315;48.620;9.828;2022-11-20T03:51:08;3.80;99.90
54409;DHT22;40315;48.620;9.828;2022-11-20T03:53:35;3.80;99.90
54409;DHT22;40315;48.620;9.828;2022-11-20T03:56:02;3.80;99.90
54409;DHT22;40315;48.620;9.828;2022-11-20T03:58:29;3.80;99.90
54409;DHT22;40315;48.620;9.828;2022-11-20T04:00:56;3.80;99.90
54409;DHT22;40315;48.620;9.828;2022-11-20T04:05:53;3.80;99.90
54409;DHT22;40315;48.620;9.828;2022-11-20T04:08:23;4.20;99.90
54409;DHT22;40315;48.620;9.828;2022-11-20T04:10:52;3.90;99.90
54409;DHT22;40315;48.620;9.828;2022-11-20T04:13:19;4.30;99.90
54409;DHT22;40315;48.620;9.828;2022-11-20T04:15:46;3.90;99.90
54409;DHT22;40315;48.620;9.828;2022-11-20T04:18:15;3.10;99.90
54409;DHT22;40315;48.620;9.828;2022-11-20T04:23:11;4.00;99.90
54409;DHT22;40315;48.620;9.828;2022-11-20T04:25:38;4.80;99.90
54409;DHT22;40315;48.620;9.828;2022-11-20T04:28:05;4.00;99.90
54409;DHT22;40315;48.620;9.828;2022-11-20T04:30:34;4.00;99.90
54409;DHT22;40315;48.620;9.828;2022-11-20T04:33:01;3.90;99.90
54409;DHT22;40315;48.620;9.828;2022-11-20T04:40:24;4.10;99.90
54409;DHT22;40315;48.620;9.828;2022-11-20T04:42:51;4.70;99.90
54409;DHT22;40315;48.620;9.828;2022-11-20T04:45:18;4.80;99.90
54409;DHT22;40315;48.620;9.828;2022-11-20T04:47:45;4.10;99.90
54409;DHT22;40315;48.620;9.828;2022-11-20T04:50:12;4.10;99.90
54409;DHT22;40315;48.620;9.828;2022-11-20T04:52:39;4.10;99.90
54409;DHT22;40315;48.620;9.828;2022-11-20T04:55:08;4.30;99.90
54409;DHT22;40315;48.620;9.828;2022-11-20T04:57:35;4.20;99.90
54409;DHT22;40315;48.620;9.828;2022-11-20T05:00:02;2.80;99.90
54409;DHT22;40315;48.620;9.828;2022-11-20T05:02:31;4.10;99.90
54409;DHT22;40315;48.620;9.828;2022-11-20T05:04:58;4.60;99.90
54409;DHT22;40315;48.620;9.828;2022-11-20T05:07:25;4.10;99.90
54409;DHT22;40315;48.620;9.828;2022-11-20T05:09:52;4.70;99.90
54409;DHT22;40315;48.620;9.828;2022-11-20T05:12:20;4.80;99.90
54409;DHT22;40315;48.620;9.828;2022-11-20T05:14:47;4.30;99.90
54409;DHT22;40315;48.620;9.828;2022-11-20T05:17:14;4.00;99.90
54409;DHT22;40315;48.620;9.828;2022-11-20T05:19:43;4.30;99.90
54409;DHT22;40315;48.620;9.828;2022-11-20T05:22:13;4.40;99.90
54409;DHT22;40315;48.620;9.828;2022-11-20T05:24:40;4.40;99.90
54409;DHT22;40315;48.620;9.828;2022-11-20T05:27:07;4.50;99.90
54409;DHT22;40315;48.620;9.828;2022-11-20T05:29:35;5.10;99.90
54409;DHT22;40315;48.620;9.828;2022-11-20T05:32:02;4.70;99.90
54409;DHT22;40315;48.620;9.828;2022-11-20T05:34:31;4.50;99.90
54409;DHT22;40315;48.620;9.828;2022-11-20T05:36:58;4.50;99.90
54409;DHT22;40315;48.620;9.828;2022-11-20T05:39:25;4.80;99.90
54409;DHT22;40315;48.620;9.828;2022-11-20T05:41:52;4.50;99.90
54409;DHT22;40315;48.620;9.828;2022-11-20T05:44:40;4.60;99.90
54409;DHT22;40315;48.620;9.828;2022-11-20T05:47:09;4.70;99.90
54409;DHT22;40315;48.620;9.828;2022-11-20T05:49:36;4.50;99.90
54409;DHT22;40315;48.620;9.828;2022-11-20T05:52:04;4.60;99.90
54409;DHT22;40315;48.620;9.828;2022-11-20T05:54:31;4.60;99.90
54409;DHT22;40315;48.620;9.828;2022-11-20T05:56:58;4.60;99.90
54409;DHT22;40315;48.620;9.828;2022-11-20T05:59:25;4.60;99.90
54409;DHT22;40315;48.620;9.828;2022-11-20T06:04:20;4.70;99.90
54409;DHT22;40315;48.620;9.828;2022-11-20T06:06:50;4.70;99.90
54409;DHT22;40315;48.620;9.828;2022-11-20T06:09:17;5.00;99.90
54409;DHT22;40315;48.620;9.828;2022-11-20T06:11:44;4.80;99.90
54409;DHT22;40315;48.620;9.828;2022-11-20T06:14:11;5.10;99.90
54409;DHT22;40315;48.620;9.828;2022-11-20T06:16:40;4.80;99.90
54409;DHT22;40315;48.620;9.828;2022-11-20T06:19:10;4.80;99.90
54409;DHT22;40315;48.620;9.828;2022-11-20T06:21:37;4.80;99.90
54409;DHT22;40315;48.620;9.828;2022-11-20T06:24:05;4.70;99.90
54409;DHT22;40315;48.620;9.828;2022-11-20T06:26:32;4.80;99.90
54409;DHT22;40315;48.620;9.828;2022-11-20T06:29:01;4.80;99.90
54409;DHT22;40315;48.620;9.828;2022-11-20T06:33:58;4.90;99.90
54409;DHT22;40315;48.620;9.828;2022-11-20T06:38:54;5.00;99.90
54409;DHT22;40315;48.620;9.828;2022-11-20T06:41:21;5.00;99.90
54409;DHT22;40315;48.620;9.828;2022-11-20T06:43:49;5.00;99.90
54409;DHT22;40315;48.620;9.828;2022-11-20T06:46:19;5.00;99.90
54409;DHT22;40315;48.620;9.828;2022-11-20T06:48:47;5.10;99.90
54409;DHT22;40315;48.620;9.828;2022-11-20T06:51:14;5.00;99.90
54409;DHT22;40315;48.620;9.828;2022-11-20T06:53:43;5.10;99.90
54409;DHT22;40315;48.620;9.828;2022-11-20T06:56:10;5.10;99.90
54409;DHT22;40315;48.620;9.828;2022-11-20T06:58:37;5.20;99.90
54409;DHT22;40315;48.620;9.828;2022-11-20T07:01:05;5.20;99.90
54409;DHT22;40315;48.620;9.828;2022-11-20T07:03:33;5.20;99.90
54409;DHT22;40315;48.620;9.828;2022-11-20T07:06:01;5.20;99.90
54409;DHT22;40315;48.620;9.828;2022-11-20T07:08:28;5.20;99.90
54409;DHT22;40315;48.620;9.828;2022-11-20T07:10:59;5.20;99.90
54409;DHT22;40315;48.620;9.828;2022-11-20T07:13:27;5.90;99.90
54409;DHT22;40315;48.620;9.828;2022-11-20T07:15:54;5.30;99.90
54409;DHT22;40315;48.620;9.828;2022-11-20T07:18:22;5.30;99.90
54409;DHT22;40315;48.620;9.828;2022-11-20T07:20:49;5.30;99.90
54409;DHT22;40315;48.620;9.828;2022-11-20T07:23:16;5.30;99.90
54409;DHT22;40315;48.620;9.828;2022-11-20T07:25:42;5.30;99.90
54409;DHT22;40315;48.620;9.828;2022-11-20T07:30:41;5.40;99.90
54409;DHT22;40315;48.620;9.828;2022-11-20T07:33:11;5.40;99.90
54409;DHT22;40315;48.620;9.828;2022-11-20T07:35:38;6.20;99.90
54409;DHT22;40315;48.620;9.828;2022-11-20T07:38:05;6.00;99.90
54409;DHT22;40315;48.620;9.828;2022-11-20T07:40:32;5.40;99.90
54409;DHT22;40315;48.620;9.828;2022-11-20T07:42:59;7.10;99.90
54409;DHT22;40315;48.620;9.828;2022-11-20T07:45:27;5.40;99.90
54409;DHT22;40315;48.620;9.828;2022-11-20T07:47:57;5.60;99.90
54409;DHT22;40315;48.620;9.828;2022-11-20T07:50:24;8.70;99.90
54409;DHT22;40315;48.620;9.828;2022-11-20T07:53:00;5.40;99.90
54409;DHT22;40315;48.620;9.828;2022-11-20T07:55:28;5.50;99.90
54409;DHT22;40315;48.620;9.828;2022-11-20T07:57:57;5.40;99.90
54409;DHT22;40315;48.620;9.828;2022-11-20T08:00:25;8.40;99.90
54409;DHT22;40315;48.620;9.828;2022-11-20T08:02:53;5.50;99.90
54409;DHT22;40315;48.620;9.828;2022-11-20T08:05:21;6.10;99.90
54409;DHT22;40315;48.620;9.828;2022-11-20T08:10:16;5.40;99.90
54409;DHT22;40315;48.620;9.828;2022-11-20T08:12:47;5.40;99.90
54409;DHT22;40315;48.620;9.828;2022-11-20T08:15:32;5.30;99.90
54409;DHT22;40315;48.620;9.828;2022-11-20T08:18:02;5.30;99.90
54409;DHT22;40315;48.620;9.828;2022-11-20T08:20:30;5.40;99.90
54409;DHT22;40315;48.620;9.828;2022-11-20T08:23:00;1.90;99.90
54409;DHT22;40315;48.620;9.828;2022-11-20T08:25:27;5.50;99.90
54409;DHT22;40315;48.620;9.828;2022-11-20T08:27:57;5.40;99.90
54409;DHT22;40315;48.620;9.828;2022-11-20T08:30:24;6.60;99.90
54409;DHT22;40315;48.620;9.828;2022-11-20T08:32:51;5.60;99.90
54409;DHT22;40315;48.620;9.828;2022-11-20T08:35:20;6.30;99.90
54409;DHT22;40315;48.620;9.828;2022-11-20T08:37:49;6.50;99.90
54409;DHT22;40315;48.620;9.828;2022-11-20T08:40:20;5.90;99.90
54409;DHT22;40315;48.620;9.828;2022-11-20T08:42:47;6.40;99.90
54409;DHT22;40315;48.620;9.828;2022-11-20T08:45:15;6.00;99.90
54409;DHT22;40315;48.620;9.828;2022-11-20T08:47:45;6.70;99.90
54409;DHT22;40315;48.620;9.828;2022-11-20T08:50:14;6.20;99.90
54409;DHT22;40315;48.620;9.828;2022-11-20T08:52:43;6.30;99.90
54409;DHT22;40315;48.620;9.828;2022-11-20T08:55:10;6.30;99.90
54409;DHT22;40315;48.620;9.828;2022-11-20T08:57:37;6.30;99.90
54409;DHT22;40315;48.620;9.828;2022-11-20T09:00:06;6.20;99.90
54409;DHT22;40315;48.620;9.828;2022-11-20T09:02:36;6.20;99.90
54409;DHT22;40315;48.620;9.828;2022-11-20T09:05:04;6.20;99.90
54409;DHT22;40315;48.620;9.828;2022-11-20T09:07:31;6.20;99.90
54409;DHT22;40315;48.620;9.828;2022-11-20T09:09:59;6.20;99.90
54409;DHT22;40315;48.620;9.828;2022-11-20T09:12:26;6.20;99.90
54409;DHT22;40315;48.620;9.828;2022-11-20T09:14:53;6.20;99.90
54409;DHT22;40315;48.620;9.828;2022-11-20T09:17:20;6.20;99.90
54409;DHT22;40315;48.620;9.828;2022-11-20T09:19:47;6.60;99.90
54409;DHT22;40315;48.620;9.828;2022-11-20T09:24:42;6.10;99.90
54409;DHT22;40315;48.620;9.828;2022-11-20T09:27:10;6.20;99.90
54409;DHT22;40315;48.620;9.828;2022-11-20T09:29:37;6.70;99.90
54409;DHT22;40315;48.620;9.828;2022-11-20T09:32:05;6.20;99.90
54409;DHT22;40315;48.620;9.828;2022-11-20T09:34:32;6.20;99.90
54409;DHT22;40315;48.620;9.828;2022-11-20T09:36:59;6.30;99.90
54409;DHT22;40315;48.620;9.828;2022-11-20T09:39:28;6.30;99.90
54409;DHT22;40315;48.620;9.828;2022-11-20T09:42:17;6.30;99.90
54409;DHT22;40315;48.620;9.828;2022-11-20T09:45:18;6.30;99.90
54409;DHT22;40315;48.620;9.828;2022-11-20T09:48:13;6.30;99.90
54409;DHT22;40315;48.620;9.828;2022-11-20T09:50:45;6.30;99.90
54409;DHT22;40315;48.620;9.828;2022-11-20T09:53:23;6.30;99.90
54409;DHT22;40315;48.620;9.828;2022-11-20T09:55:52;6.60;99.90
54409;DHT22;40315;48.620;9.828;2022-11-20T09:58:28;6.60;99.90
54409;DHT22;40315;48.620;9.828;2022-11-20T10:01:03;6.30;99.90
54409;DHT22;40315;48.620;9.828;2022-11-20T10:03:39;6.40;99.90
54409;DHT22;40315;48.620;9.828;2022-11-20T10:06:12;6.40;99.90
54409;DHT22;40315;48.620;9.828;2022-11-20T10:08:43;6.40;99.90
54409;DHT22;40315;48.620;9.828;2022-11-20T10:11:19;6.40;99.90
54409;DHT22;40315;48.620;9.828;2022-11-20T10:13:57;6.50;99.90
54409;DHT22;40315;48.620;9.828;2022-11-20T10:16:34;7.20;99.90
54409;DHT22;40315;48.620;9.828;2022-11-20T10:19:15;7.10;99.90
54409;DHT22;40315;48.620;9.828;2022-11-20T10:21:57;6.40;99.90
54409;DHT22;40315;48.620;9.828;2022-11-20T10:24:44;6.80;99.90
54409;DHT22;40315;48.620;9.828;2022-11-20T10:27:37;6.40;99.90
54409;DHT22;40315;48.620;9.828;2022-11-20T10:30:11;6.40;99.90
54409;DHT22;40315;48.620;9.828;2022-11-20T10:32:40;6.40;99.90
54409;DHT22;40315;48.620;9.828;2022-11-20T10:35:18;6.40;99.90
54409;DHT22;40315;48.620;9.828;2022-11-20T10:37:51;6.40;99.90
54409;DHT22;40315;48.620;9.828;2022-11-20T10:40:23;6.60;99.90
54409;DHT22;40315;48.620;9.828;2022-11-20T10:42:56;6.40;99.90
54409;DHT22;40315;48.620;9.828;2022-11-20T10:45:48;6.80;99.90
54409;DHT22;40315;48.620;9.828;2022-11-20T10:48:21;6.40;99.90
54409;DHT22;40315;48.620;9.828;2022-11-20T10:53:58;8.40;99.90
54409;DHT22;40315;48.620;9.828;2022-11-20T10:56:34;6.50;99.90
54409;DHT22;40315;48.620;9.828;2022-11-20T11:02:19;6.50;99.90
54409;DHT22;40315;48.620;9.828;2022-11-20T11:04:48;7.20;99.90
54409;DHT22;40315;48.620;9.828;2022-11-20T11:07:18;6.50;99.90
54409;DHT22;40315;48.620;9.828;2022-11-20T11:09:48;6.40;99.90
54409;DHT22;40315;48.620;9.828;2022-11-20T11:12:16;6.40;99.90
54409;DHT22;40315;48.620;9.828;2022-11-20T11:14:45;6.70;99.90
54409;DHT22;40315;48.620;9.828;2022-11-20T11:17:26;6.40;99.90
54409;DHT22;40315;48.620;9.828;2022-11-20T11:19:58;6.40;99.90
54409;DHT22;40315;48.620;9.828;2022-11-20T11:22:25;6.30;99.90
54409;DHT22;40315;48.620;9.828;2022-11-20T11:24:54;6.30;99.90
54409;DHT22;40315;48.620;9.828;2022-11-20T11:27:24;6.30;99.90
54409;DHT22;40315;48.620;9.828;2022-11-20T11:30:03;6.20;99.90
54409;DHT22;40315;48.620;9.828;2022-11-20T11:32:39;6.20;99.90
54409;DHT22;40315;48.620;9.828;2022-11-20T11:35:21;6.20;99.90
54409;DHT22;40315;48.620;9.828;2022-11-20T11:37:50;6.20;99.90
54409;DHT22;40315;48.620;9.828;2022-11-20T11:40:21;6.80;99.90
54409;DHT22;40315;48.620;9.828;2022-11-20T11:42:54;6.10;99.90
54409;DHT22;40315;48.620;9.828;2022-11-20T11:45:21;6.00;99.90
54409;DHT22;40315;48.620;9.828;2022-11-20T11:47:50;6.00;99.90
54409;DHT22;40315;48.620;9.828;2022-11-20T11:50:22;6.00;99.90
54409;DHT22;40315;48.620;9.828;2022-11-20T11:52:56;5.90;99.90
54409;DHT22;40315;48.620;9.828;2022-11-20T11:55:31;6.00;99.90
54409;DHT22;40315;48.620;9.828;2022-11-20T11:58:15;5.90;99.90
54409;DHT22;40315;48.620;9.828;2022-11-20T12:00:50;5.90;99.90
54409;DHT22;40315;48.620;9.828;2022-11-20T12:03:22;6.80;99.90
54409;DHT22;40315;48.620;9.828;2022-11-20T12:05:58;6.80;99.90
54409;DHT22;40315;48.620;9.828;2022-11-20T12:08:31;5.80;99.90
54409;DHT22;40315;48.620;9.828;2022-11-20T12:11:04;5.90;99.90
54409;DHT22;40315;48.620;9.828;2022-11-20T12:13:48;5.90;99.90
54409;DHT22;40315;48.620;9.828;2022-11-20T12:16:19;5.90;99.90
54409;DHT22;40315;48.620;9.828;2022-11-20T12:18:50;6.00;99.90
54409;DHT22;40315;48.620;9.828;2022-11-20T12:21:28;6.00;99.90
54409;DHT22;40315;48.620;9.828;2022-11-20T12:27:11;6.10;99.90
54409;DHT22;40315;48.620;9.828;2022-11-20T12:29:47;6.20;99.90
54409;DHT22;40315;48.620;9.828;2022-11-20T12:32:52;6.20;99.90
54409;DHT22;40315;48.620;9.828;2022-11-20T12:35:35;6.20;99.90
54409;DHT22;40315;48.620;9.828;2022-11-20T12:41:14;6.50;99.90
54409;DHT22;40315;48.620;9.828;2022-11-20T12:44:12;6.70;99.90
54409;DHT22;40315;48.620;9.828;2022-11-20T12:47:14;6.80;99.90
54409;DHT22;40315;48.620;9.828;2022-11-20T12:49:48;6.80;99.90
54409;DHT22;40315;48.620;9.828;2022-11-20T12:52:38;7.50;99.90
54409;DHT22;40315;48.620;9.828;2022-11-20T12:55:20;6.90;99.90
54409;DHT22;40315;48.620;9.828;2022-11-20T12:57:54;7.00;99.90
54409;DHT22;40315;48.620;9.828;2022-11-20T13:00:24;7.00;99.90
54409;DHT22;40315;48.620;9.828;2022-11-20T13:03:24;7.00;99.90
54409;DHT22;40315;48.620;9.828;2022-11-20T13:06:01;6.90;99.90
54409;DHT22;40315;48.620;9.828;2022-11-20T13:08:34;6.90;99.90
54409;DHT22;40315;48.620;9.828;2022-11-20T13:11:07;6.90;99.90
54409;DHT22;40315;48.620;9.828;2022-11-20T13:13:45;7.00;99.90
54409;DHT22;40315;48.620;9.828;2022-11-20T13:16:17;6.90;99.90
54409;DHT22;40315;48.620;9.828;2022-11-20T13:21:19;6.80;99.90
54409;DHT22;40315;48.620;9.828;2022-11-20T13:23:48;6.90;99.90
54409;DHT22;40315;48.620;9.828;2022-11-20T13:26:18;8.10;99.90
54409;DHT22;40315;48.620;9.828;2022-11-20T13:28:47;7.20;99.90
54409;DHT22;40315;48.620;9.828;2022-11-20T13:31:39;7.20;99.90
54409;DHT22;40315;48.620;9.828;2022-11-20T13:34:12;7.10;99.90
54409;DHT22;40315;48.620;9.828;2022-11-20T13:36:50;7.40;99.90
54409;DHT22;40315;48.620;9.828;2022-11-20T13:41:57;6.90;99.90
54409;DHT22;40315;48.620;9.828;2022-11-20T13:44:29;6.80;99.90
54409;DHT22;40315;48.620;9.828;2022-11-20T13:46:57;6.80;99.90
54409;DHT22;40315;48.620;9.828;2022-11-20T13:49:27;6.90;99.90
54409;DHT22;40315;48.620;9.828;2022-11-20T13:52:04;6.90;99.90
54409;DHT22;40315;48.620;9.828;2022-11-20T13:54:49;7.00;99.90
54409;DHT22;40315;48.620;9.828;2022-11-20T13:57:35;7.00;99.90
54409;DHT22;40315;48.620;9.828;2022-11-20T14:00:12;7.00;99.90
54409;DHT22;40315;48.620;9.828;2022-11-20T14:02:40;6.80;99.90
54409;DHT22;40315;48.620;9.828;2022-11-20T14:05:17;6.60;99.90
54409;DHT22;40315;48.620;9.828;2022-11-20T14:07:47;6.40;99.90
54409;DHT22;40315;48.620;9.828;2022-11-20T14:10:25;6.20;99.90
54409;DHT22;40315;48.620;9.828;2022-11-20T14:12:54;6.20;99.90
54409;DHT22;40315;48.620;9.828;2022-11-20T14:15:26;6.20;99.90
54409;DHT22;40315;48.620;9.828;2022-11-20T14:17:53;6.10;99.90
54409;DHT22;40315;48.620;9.828;2022-11-20T14:20:24;6.10;99.90
54409;DHT22;40315;48.620;9.828;2022-11-20T14:22:52;6.10;99.90
54409;DHT22;40315;48.620;9.828;2022-11-20T14:25:25;6.30;99.90
54409;DHT22;40315;48.620;9.828;2022-11-20T14:27:54;6.20;99.90
54409;DHT22;40315;48.620;9.828;2022-11-20T14:30:23;6.30;99.90
54409;DHT22;40315;48.620;9.828;2022-11-20T14:32:53;6.30;99.90
54409;DHT22;40315;48.620;9.828;2022-11-20T14:35:25;6.40;99.90
54409;DHT22;40315;48.620;9.828;2022-11-20T14:37:56;6.30;99.90
54409;DHT22;40315;48.620;9.828;2022-11-20T14:40:28;6.30;99.90
54409;DHT22;40315;48.620;9.828;2022-11-20T14:42:56;6.30;99.90
54409;DHT22;40315;48.620;9.828;2022-11-20T14:45:29;6.40;99.90
54409;DHT22;40315;48.620;9.828;2022-11-20T14:47:58;6.40;99.90
54409;DHT22;40315;48.620;9.828;2022-11-20T14:50:29;6.40;99.90
54409;DHT22;40315;48.620;9.828;2022-11-20T14:52:58;6.40;99.90
54409;DHT22;40315;48.620;9.828;2022-11-20T14:55:29;6.50;99.90
54409;DHT22;40315;48.620;9.828;2022-11-20T14:57:58;6.80;99.90
54409;DHT22;40315;48.620;9.828;2022-11-20T15:00:27;6.60;99.90
54409;DHT22;40315;48.620;9.828;2022-11-20T15:02:54;6.20;99.90
54409;DHT22;40315;48.620;9.828;2022-11-20T15:05:23;6.40;99.90
54409;DHT22;40315;48.620;9.828;2022-11-20T15:08:03;6.40;99.90
54409;DHT22;40315;48.620;9.828;2022-11-20T15:10:35;6.30;99.90
54409;DHT22;40315;48.620;9.828;2022-11-20T15:13:10;6.20;99.90
54409;DHT22;40315;48.620;9.828;2022-11-20T15:15:43;6.10;99.90
54409;DHT22;40315;48.620;9.828;2022-11-20T15:18:13;6.10;99.90
54409;DHT22;40315;48.620;9.828;2022-11-20T15:20:44;6.00;99.90
54409;DHT22;40315;48.620;9.828;2022-11-20T15:23:17;5.90;99.90
54409;DHT22;40315;48.620;9.828;2022-11-20T15:28:18;5.90;99.90
54409;DHT22;40315;48.620;9.828;2022-11-20T15:30:46;5.80;99.90
54409;DHT22;40315;48.620;9.828;2022-11-20T15:33:18;5.80;99.90
54409;DHT22;40315;48.620;9.828;2022-11-20T15:38:13;5.70;99.90
54409;DHT22;40315;48.620;9.828;2022-11-20T15:40:42;5.60;99.90
54409;DHT22;40315;48.620;9.828;2022-11-20T15:43:11;5.70;99.90
54409;DHT22;40315;48.620;9.828;2022-11-20T15:45:45;5.80;99.90
54409;DHT22;40315;48.620;9.828;2022-11-20T15:48:18;5.60;99.90
54409;DHT22;40315;48.620;9.828;2022-11-20T15:50:52;5.60;99.90
54409;DHT22;40315;48.620;9.828;2022-11-20T15:53:23;5.50;99.90
54409;DHT22;40315;48.620;9.828;2022-11-20T15:55:50;5.40;99.90
54409;DHT22;40315;48.620;9.828;2022-11-20T15:58:19;5.30;99.90
54409;DHT22;40315;48.620;9.828;2022-11-20T16:00:46;5.20;99.90
54409;DHT22;40315;48.620;9.828;2022-11-20T16:03:15;5.20;99.90
54409;DHT22;40315;48.620;9.828;2022-11-20T16:05:42;5.10;99.90
54409;DHT22;40315;48.620;9.828;2022-11-20T16:08:10;5.00;99.90
54409;DHT22;40315;48.620;9.828;2022-11-20T16:10:38;5.00;99.90
54409;DHT22;40315;48.620;9.828;2022-11-20T16:13:14;5.20;99.90
54409;DHT22;40315;48.620;9.828;2022-11-20T16:16:04;5.20;99.90
54409;DHT22;40315;48.620;9.828;2022-11-20T16:18:35;5.20;99.90
54409;DHT22;40315;48.620;9.828;2022-11-20T16:21:04;5.20;99.90
54409;DHT22;40315;48.620;9.828;2022-11-20T16:23:31;5.20;99.90
54409;DHT22;40315;48.620;9.828;2022-11-20T16:26:09;5.10;99.90
54409;DHT22;40315;48.620;9.828;2022-11-20T16:28:36;4.90;99.90
54409;DHT22;40315;48.620;9.828;2022-11-20T16:31:13;4.90;99.90
54409;DHT22;40315;48.620;9.828;2022-11-20T16:36:12;4.90;99.90
54409;DHT22;40315;48.620;9.828;2022-11-20T16:38:41;4.80;99.90
54409;DHT22;40315;48.620;9.828;2022-11-20T16:41:09;4.70;99.90
54409;DHT22;40315;48.620;9.828;2022-11-20T16:43:44;4.70;99.90
54409;DHT22;40315;48.620;9.828;2022-11-20T16:46:13;4.60;99.90
54409;DHT22;40315;48.620;9.828;2022-11-20T16:48:41;4.60;99.90
54409;DHT22;40315;48.620;9.828;2022-11-20T16:51:10;4.60;99.90
54409;DHT22;40315;48.620;9.828;2022-11-20T16:53:39;4.60;99.90
54409;DHT22;40315;48.620;9.828;2022-11-20T16:56:11;6.20;99.90
54409;DHT22;40315;48.620;9.828;2022-11-20T16:58:40;4.60;99.90
54409;DHT22;40315;48.620;9.828;2022-11-20T17:01:09;4.50;99.90
54409;DHT22;40315;48.620;9.828;2022-11-20T17:03:39;4.40;99.90
54409;DHT22;40315;48.620;9.828;2022-11-20T17:06:11;4.30;99.90
54409;DHT22;40315;48.620;9.828;2022-11-20T17:08:39;4.30;99.90
54409;DHT22;40315;48.620;9.828;2022-11-20T17:11:07;4.30;99.90